Time;durP1;ratioP1;P1;durP2;ratioP2;P2;SDS_P1;SDS_P2;PMS_P1;PMS_P2;Temp;Humidity;BMP_temperature;BMP_pressure;BME280_temperature;BME280_humidity;BME280_pressure;Samples;Min_cycle;Max_cycle;Signal;HPM_P1;HPM_P2
2023/11/08 00:00:41;;;;;;;1.30;0.97;;;6.10;99.90;;;;;;2089495;28;20231;-74
2023/11/08 00:01:42;;;;;;;2.45;1.00;;;6.10;99.90;;;;;;2095124;28;20733;-75
2023/11/08 00:02:43;;;;;;;1.87;1.20;;;6.10;99.90;;;;;;2095321;28;20231;-74
2023/11/08 00:03:43;;;;;;;1.77;0.87;;;6.00;99.90;;;;;;2093361;28;20654;-74
2023/11/08 00:04:44;;;;;;;1.50;0.90;;;5.90;99.90;;;;;;2088742;28;20242;-75
2023/11/08 00:05:44;;;;;;;3.07;1.03;;;5.90;99.90;;;;;;2089383;28;20220;-74
2023/11/08 00:06:45;;;;;;;1.00;0.87;;;5.90;99.90;;;;;;2095536;28;20227;-74
2023/11/08 00:07:46;;;;;;;2.63;0.93;;;5.90;99.90;;;;;;2087135;28;20224;-74
2023/11/08 00:08:50;;;;;;;1.97;0.90;;;5.80;99.90;;;;;;2091795;28;20247;-75
2023/11/08 00:09:51;;;;;;;2.15;1.00;;;5.80;99.90;;;;;;2088959;28;20245;-74
2023/11/08 00:10:51;;;;;;;2.17;0.77;;;5.70;99.90;;;;;;2090420;28;20224;-74
2023/11/08 00:11:52;;;;;;;3.30;0.83;;;5.60;99.90;;;;;;2095347;28;20776;-75
2023/11/08 00:12:52;;;;;;;4.60;1.00;;;5.60;99.90;;;;;;2087300;28;20274;-74
2023/11/08 00:13:54;;;;;;;2.43;0.97;;;5.70;99.90;;;;;;2087348;28;20844;-74
2023/11/08 00:14:57;;;;;;;3.15;0.80;;;5.70;99.90;;;;;;2085484;28;20690;-75
2023/11/08 00:15:58;;;;;;;1.65;0.90;;;5.70;99.90;;;;;;2091847;28;20214;-74
2023/11/08 00:17:01;;;;;;;6.10;1.08;;;5.70;99.90;;;;;;2083094;28;20228;-75
2023/11/08 00:18:02;;;;;;;1.80;0.90;;;5.60;99.90;;;;;;2094052;28;20718;-76
2023/11/08 00:19:02;;;;;;;1.90;0.95;;;5.60;99.90;;;;;;2093715;28;20318;-75
2023/11/08 00:20:09;;;;;;;2.10;1.33;;;5.50;99.90;;;;;;2090555;28;20177;-74
2023/11/08 00:21:09;;;;;;;1.63;0.80;;;5.50;99.90;;;;;;2095393;28;20278;-74
2023/11/08 00:22:11;;;;;;;2.67;1.07;;;5.50;99.90;;;;;;2094667;28;20727;-75
2023/11/08 00:23:12;;;;;;;3.65;1.08;;;5.50;99.90;;;;;;2094482;28;20605;-75
2023/11/08 00:24:13;;;;;;;3.53;0.93;;;5.50;99.90;;;;;;2093963;28;20297;-74
2023/11/08 00:25:13;;;;;;;2.03;0.80;;;5.50;99.90;;;;;;2092681;28;20241;-75
2023/11/08 00:26:14;;;;;;;2.30;0.83;;;5.50;99.90;;;;;;2091408;28;20179;-75
2023/11/08 00:27:14;;;;;;;4.80;1.10;;;5.60;99.90;;;;;;2097473;28;20187;-75
2023/11/08 00:28:16;;;;;;;6.30;1.10;;;5.60;99.90;;;;;;2093172;28;20192;-74
2023/11/08 00:29:16;;;;;;;2.38;0.80;;;5.60;99.90;;;;;;2090378;28;20259;-74
2023/11/08 00:30:17;;;;;;;1.70;0.70;;;5.70;99.90;;;;;;2088467;28;20262;-75
2023/11/08 00:31:18;;;;;;;2.03;0.93;;;5.60;99.90;;;;;;2095125;28;20179;-74
2023/11/08 00:32:21;;;;;;;9.20;1.58;;;5.50;99.90;;;;;;2091608;28;20202;-75
2023/11/08 00:33:22;;;;;;;1.58;0.80;;;5.60;99.90;;;;;;2093690;28;20231;-74
2023/11/08 00:34:22;;;;;;;3.00;1.03;;;5.60;99.90;;;;;;2094205;28;20227;-75
2023/11/08 00:35:23;;;;;;;2.23;1.23;;;5.60;99.90;;;;;;2089546;28;20687;-75
2023/11/08 00:36:23;;;;;;;2.70;1.20;;;5.60;99.90;;;;;;2094063;28;20357;-75
2023/11/08 00:37:25;;;;;;;1.37;0.70;;;5.60;99.90;;;;;;2095054;28;20683;-74
2023/11/08 00:38:25;;;;;;;2.47;0.90;;;5.60;99.90;;;;;;2095196;28;20274;-74
2023/11/08 00:39:26;;;;;;;2.10;0.80;;;5.60;99.90;;;;;;2093779;28;20782;-74
2023/11/08 00:40:26;;;;;;;2.50;1.57;;;5.70;99.90;;;;;;2093623;28;20308;-75
2023/11/08 00:41:28;;;;;;;1.80;0.80;;;5.70;99.90;;;;;;2093782;28;20223;-74
2023/11/08 00:42:28;;;;;;;3.05;1.13;;;5.70;99.90;;;;;;2084092;28;20224;-75
2023/11/08 00:43:29;;;;;;;2.10;0.97;;;5.70;99.90;;;;;;2095063;28;20732;-75
2023/11/08 00:44:29;;;;;;;1.40;1.07;;;5.70;99.90;;;;;;2098942;28;20628;-74
2023/11/08 00:45:30;;;;;;;2.20;0.97;;;5.80;99.90;;;;;;2097917;28;20223;-74
2023/11/08 00:46:30;;;;;;;3.53;0.80;;;5.80;99.90;;;;;;2093378;28;20231;-74
2023/11/08 00:47:32;;;;;;;2.63;0.80;;;5.70;99.90;;;;;;2089081;28;20223;-74
2023/11/08 00:48:34;;;;;;;2.78;1.00;;;5.80;99.90;;;;;;2088185;28;20266;-75
2023/11/08 00:49:35;;;;;;;3.22;0.98;;;5.80;99.90;;;;;;2094792;28;20227;-75
2023/11/08 00:50:36;;;;;;;3.92;0.90;;;5.80;99.90;;;;;;2095124;28;20250;-74
2023/11/08 00:51:36;;;;;;;4.33;0.90;;;5.90;99.90;;;;;;2095627;28;20763;-75
2023/11/08 00:52:37;;;;;;;4.60;1.00;;;6.00;99.90;;;;;;2092319;28;20594;-74
2023/11/08 00:53:39;;;;;;;4.10;1.10;;;5.90;99.90;;;;;;2088168;28;20251;-74
2023/11/08 00:54:39;;;;;;;2.33;1.00;;;5.80;99.90;;;;;;2095363;28;20460;-74
2023/11/08 00:55:40;;;;;;;3.13;1.03;;;5.80;99.90;;;;;;2086949;28;20227;-74
2023/11/08 00:56:41;;;;;;;4.20;1.10;;;5.70;99.90;;;;;;2093219;28;20232;-74
2023/11/08 00:57:42;;;;;;;2.70;1.20;;;5.70;99.90;;;;;;2089265;28;20235;-74
2023/11/08 00:58:43;;;;;;;3.40;1.10;;;5.70;99.90;;;;;;2090379;28;20239;-74
2023/11/08 00:59:43;;;;;;;6.07;1.33;;;5.60;99.90;;;;;;2098905;28;20239;-75
2023/11/08 01:00:44;;;;;;;4.87;1.67;;;5.70;99.90;;;;;;2089015;28;20607;-74
2023/11/08 01:01:45;;;;;;;4.03;1.33;;;5.70;99.90;;;;;;2087035;28;20273;-74
2023/11/08 01:02:46;;;;;;;2.90;1.23;;;5.60;99.90;;;;;;2095399;28;20296;-75
2023/11/08 01:03:47;;;;;;;3.50;1.10;;;5.60;99.90;;;;;;2094706;28;20233;-74
2023/11/08 01:04:48;;;;;;;1.90;0.93;;;5.60;99.90;;;;;;2089614;28;20660;-76
2023/11/08 01:05:48;;;;;;;1.40;0.77;;;5.60;99.90;;;;;;2086826;28;20339;-76
2023/11/08 01:06:49;;;;;;;3.13;0.90;;;5.60;99.90;;;;;;2094696;28;20606;-74
2023/11/08 01:07:49;;;;;;;1.67;0.90;;;5.60;99.90;;;;;;2092158;28;20232;-75
2023/11/08 01:08:50;;;;;;;3.37;0.87;;;5.60;99.90;;;;;;2090768;28;20293;-74
2023/11/08 01:09:51;;;;;;;1.47;0.90;;;5.50;99.90;;;;;;2086997;28;20227;-74
2023/11/08 01:10:51;;;;;;;1.33;0.90;;;5.50;99.90;;;;;;2086080;28;20232;-74
2023/11/08 01:11:52;;;;;;;3.33;1.37;;;5.60;99.90;;;;;;2095245;28;20284;-74
2023/11/08 01:12:53;;;;;;;5.63;1.23;;;5.70;99.90;;;;;;2092520;28;20612;-74
2023/11/08 01:13:55;;;;;;;4.10;0.90;;;5.60;99.90;;;;;;2081975;28;20227;-74
2023/11/08 01:14:55;;;;;;;3.05;0.70;;;5.70;99.90;;;;;;2091663;28;20228;-74
2023/11/08 01:15:56;;;;;;;1.33;0.80;;;5.60;99.90;;;;;;2086686;28;20246;-74
2023/11/08 01:16:56;;;;;;;3.73;1.07;;;5.60;99.90;;;;;;2081856;28;20216;-73
2023/11/08 01:17:58;;;;;;;2.63;0.77;;;5.60;99.90;;;;;;2081584;28;20223;-74
2023/11/08 01:18:58;;;;;;;2.03;0.70;;;5.50;99.90;;;;;;2082162;28;20228;-74
2023/11/08 01:20:02;;;;;;;2.90;1.07;;;5.50;99.90;;;;;;2082043;28;20715;-75
2023/11/08 01:21:03;;;;;;;2.40;0.80;;;5.50;99.90;;;;;;2090562;28;20627;-75
2023/11/08 01:22:05;;;;;;;1.10;0.70;;;5.40;99.90;;;;;;2097799;28;20195;-73
2023/11/08 01:23:05;;;;;;;1.50;0.80;;;5.50;99.90;;;;;;2095351;28;20191;-75
2023/11/08 01:24:06;;;;;;;3.30;1.00;;;5.40;99.90;;;;;;2097661;28;20284;-74
2023/11/08 01:25:08;;;;;;;1.80;0.90;;;5.40;99.90;;;;;;2092522;28;20262;-75
2023/11/08 01:26:09;;;;;;;3.28;0.98;;;5.40;99.90;;;;;;2099494;28;20187;-74
2023/11/08 01:27:10;;;;;;;1.17;0.80;;;5.40;99.90;;;;;;2094370;28;20664;-74
2023/11/08 01:28:11;;;;;;;1.27;0.80;;;5.40;99.90;;;;;;2093967;28;20220;-73
2023/11/08 01:29:11;;;;;;;0.70;0.60;;;5.40;99.90;;;;;;2095211;28;20207;-74
2023/11/08 01:30:12;;;;;;;1.90;0.80;;;5.40;99.90;;;;;;2092442;28;20258;-73
2023/11/08 01:31:13;;;;;;;5.27;0.70;;;5.30;99.90;;;;;;2084023;28;20226;-74
2023/11/08 01:32:13;;;;;;;2.13;0.90;;;5.30;99.90;;;;;;2092772;28;20621;-75
2023/11/08 01:33:14;;;;;;;3.57;0.87;;;5.30;99.90;;;;;;2086094;28;20207;-74
2023/11/08 01:34:15;;;;;;;1.77;0.80;;;5.30;99.90;;;;;;2095270;28;20210;-74
2023/11/08 01:35:15;;;;;;;1.50;0.83;;;5.30;99.90;;;;;;2088791;28;20186;-74
2023/11/08 01:36:16;;;;;;;1.63;0.70;;;5.30;99.90;;;;;;2087902;28;20279;-74
2023/11/08 01:37:16;;;;;;;1.23;0.80;;;5.30;99.90;;;;;;2091047;28;20187;-74
2023/11/08 01:38:17;;;;;;;2.47;0.90;;;5.20;99.90;;;;;;2092576;28;20234;-75
2023/11/08 01:39:18;;;;;;;1.17;1.00;;;5.20;99.90;;;;;;2093665;28;20207;-74
2023/11/08 01:40:20;;;;;;;7.03;1.00;;;5.20;99.90;;;;;;2092262;28;20657;-74
2023/11/08 01:41:21;;;;;;;1.45;0.80;;;5.20;99.90;;;;;;2093452;28;20220;-73
2023/11/08 01:42:22;;;;;;;1.43;0.87;;;5.20;99.90;;;;;;2092882;28;20263;-73
2023/11/08 01:43:26;;;;;;;2.60;1.10;;;5.10;99.90;;;;;;2094992;28;20231;-74
2023/11/08 01:44:27;;;;;;;2.42;1.02;;;5.00;99.90;;;;;;2092031;28;20295;-74
2023/11/08 01:45:28;;;;;;;2.80;0.80;;;5.00;99.90;;;;;;2096261;28;20622;-73
2023/11/08 01:46:29;;;;;;;7.67;1.63;;;5.00;99.90;;;;;;2088453;28;20267;-75
2023/11/08 01:47:35;;;;;;;2.28;1.10;;;5.00;99.90;;;;;;2096306;28;20281;-74
2023/11/08 01:48:35;;;;;;;4.90;1.20;;;5.10;99.90;;;;;;2094659;28;20220;-74
2023/11/08 01:49:36;;;;;;;3.10;1.00;;;5.00;99.90;;;;;;2082929;28;20224;-74
2023/11/08 01:50:36;;;;;;;3.33;0.90;;;5.00;99.90;;;;;;2092528;28;20227;-74
2023/11/08 01:51:37;;;;;;;2.77;0.77;;;5.10;99.90;;;;;;2095365;28;20223;-74
2023/11/08 01:52:38;;;;;;;3.47;0.90;;;5.10;99.90;;;;;;2085650;28;20251;-75
2023/11/08 01:53:41;;;;;;;2.00;0.80;;;5.10;99.90;;;;;;2093464;28;20234;-74
2023/11/08 01:54:45;;;;;;;3.13;0.90;;;5.20;99.90;;;;;;2089333;28;20240;-74
2023/11/08 01:55:46;;;;;;;3.20;0.98;;;5.20;99.90;;;;;;2093353;28;20297;-74
2023/11/08 01:56:47;;;;;;;3.30;0.95;;;5.20;99.90;;;;;;2093533;28;20268;-74
2023/11/08 01:57:48;;;;;;;5.03;1.00;;;5.20;99.90;;;;;;2095505;28;20297;-74
2023/11/08 01:58:51;;;;;;;2.08;0.90;;;5.20;99.90;;;;;;2094343;28;20243;-74
2023/11/08 01:59:52;;;;;;;4.18;1.45;;;5.30;99.90;;;;;;2096348;28;20223;-74
2023/11/08 02:00:55;;;;;;;1.27;0.93;;;5.30;99.90;;;;;;2096618;28;20239;-74
2023/11/08 02:01:57;;;;;;;6.00;0.93;;;5.30;99.90;;;;;;2097285;28;20724;-74
2023/11/08 02:02:58;;;;;;;2.03;0.80;;;5.30;99.90;;;;;;2093518;28;20760;-74
2023/11/08 02:04:00;;;;;;;7.05;1.90;;;5.30;99.90;;;;;;2091649;28;20676;-73
2023/11/08 02:05:02;;;;;;;3.47;1.00;;;5.30;99.90;;;;;;2090245;28;20246;-74
2023/11/08 02:06:04;;;;;;;3.72;1.00;;;5.40;99.90;;;;;;2090017;28;20191;-73
2023/11/08 02:07:04;;;;;;;1.65;1.13;;;5.40;99.90;;;;;;2090015;28;20192;-74
2023/11/08 02:08:05;;;;;;;2.93;1.30;;;5.30;99.90;;;;;;2095017;28;20666;-76
2023/11/08 02:09:06;;;;;;;2.63;1.00;;;5.30;99.90;;;;;;2091867;28;20203;-73
2023/11/08 02:10:08;;;;;;;3.27;1.27;;;5.20;99.90;;;;;;2093786;28;20222;-73
2023/11/08 02:11:09;;;;;;;7.55;1.13;;;5.20;99.90;;;;;;2094410;28;20665;-73
2023/11/08 02:12:10;;;;;;;2.50;0.90;;;5.10;99.90;;;;;;2094989;28;20274;-73
2023/11/08 02:13:12;;;;;;;1.60;1.05;;;5.10;99.90;;;;;;2089042;28;20585;-73
2023/11/08 02:14:12;;;;;;;1.63;1.10;;;5.10;99.90;;;;;;2090129;28;20188;-73
2023/11/08 02:15:15;;;;;;;1.63;1.20;;;5.10;99.90;;;;;;2095612;28;20326;-73
2023/11/08 02:16:15;;;;;;;2.95;1.40;;;5.10;99.90;;;;;;2093007;28;20647;-73
2023/11/08 02:17:16;;;;;;;3.70;1.37;;;5.10;99.90;;;;;;2091597;28;20190;-74
2023/11/08 02:18:17;;;;;;;1.63;1.00;;;5.00;99.90;;;;;;2094453;28;20792;-73
2023/11/08 02:19:17;;;;;;;1.97;1.00;;;5.00;99.90;;;;;;2095337;28;20214;-74
2023/11/08 02:20:19;;;;;;;1.67;1.10;;;5.00;99.90;;;;;;2091220;28;20191;-74
2023/11/08 02:21:20;;;;;;;5.47;1.75;;;5.00;99.90;;;;;;2090658;28;20256;-74
2023/11/08 02:22:21;;;;;;;3.55;1.45;;;5.00;99.90;;;;;;2093265;28;20261;-73
2023/11/08 02:23:22;;;;;;;2.43;1.30;;;5.00;99.90;;;;;;2094830;28;20276;-74
2023/11/08 02:24:23;;;;;;;3.47;1.23;;;5.00;99.90;;;;;;2099533;28;20250;-74
2023/11/08 02:25:24;;;;;;;1.92;1.27;;;5.00;99.90;;;;;;2098228;28;20227;-74
2023/11/08 02:26:24;;;;;;;2.37;1.20;;;5.00;99.90;;;;;;2094148;28;20313;-73
2023/11/08 02:27:25;;;;;;;3.43;1.47;;;5.00;99.90;;;;;;2090722;28;20306;-73
2023/11/08 02:28:26;;;;;;;4.60;1.70;;;5.00;99.90;;;;;;2088879;28;20319;-73
2023/11/08 02:29:26;;;;;;;2.08;1.55;;;5.00;99.90;;;;;;2091378;28;20697;-73
2023/11/08 02:30:27;;;;;;;4.83;1.13;;;5.00;99.90;;;;;;2089444;28;20223;-73
2023/11/08 02:31:29;;;;;;;3.50;1.10;;;5.20;99.90;;;;;;2091422;28;20235;-73
2023/11/08 02:32:33;;;;;;;3.65;1.13;;;5.20;99.90;;;;;;2092007;28;20286;-75
2023/11/08 02:33:34;;;;;;;2.25;1.10;;;5.20;99.90;;;;;;2091474;28;20239;-76
2023/11/08 02:34:35;;;;;;;1.33;0.90;;;5.20;99.90;;;;;;2092707;28;20234;-75
2023/11/08 02:35:37;;;;;;;2.35;1.17;;;5.30;99.90;;;;;;2090064;28;20224;-74
2023/11/08 02:36:38;;;;;;;3.70;1.13;;;5.40;99.90;;;;;;2087725;28;20938;-74
2023/11/08 02:37:38;;;;;;;2.67;1.50;;;5.40;99.90;;;;;;2088375;28;20227;-74
2023/11/08 02:38:39;;;;;;;3.13;1.27;;;5.40;99.90;;;;;;2092263;28;20235;-74
2023/11/08 02:39:40;;;;;;;4.73;1.10;;;5.40;99.90;;;;;;2090445;28;20231;-74
2023/11/08 02:40:42;;;;;;;2.72;0.90;;;5.40;99.90;;;;;;2091820;28;20233;-74
2023/11/08 02:41:42;;;;;;;3.13;1.27;;;5.50;99.90;;;;;;2092465;28;20224;-74
2023/11/08 02:42:45;;;;;;;2.57;1.13;;;5.60;99.90;;;;;;2093313;28;20307;-73
2023/11/08 02:43:46;;;;;;;2.20;1.27;;;5.60;99.90;;;;;;2089102;28;20302;-74
2023/11/08 02:44:46;;;;;;;2.23;1.37;;;5.70;99.90;;;;;;2090288;28;20716;-74
2023/11/08 02:45:47;;;;;;;2.23;0.90;;;5.70;99.90;;;;;;2092573;28;20626;-74
2023/11/08 02:46:47;;;;;;;2.07;1.10;;;5.80;99.90;;;;;;2091068;28;20240;-74
2023/11/08 02:47:50;;;;;;;2.63;1.10;;;5.70;99.90;;;;;;2090780;28;20258;-75
2023/11/08 02:48:56;;;;;;;4.43;1.83;;;5.70;99.90;;;;;;2091114;28;20244;-74
2023/11/08 02:49:58;;;;;;;2.65;1.20;;;5.60;99.90;;;;;;2095551;28;20428;-74
2023/11/08 02:50:59;;;;;;;1.92;1.10;;;5.60;99.90;;;;;;2103322;28;20273;-76
2023/11/08 02:52:01;;;;;;;2.70;1.00;;;5.60;99.90;;;;;;2097249;28;20211;-76
2023/11/08 02:53:02;;;;;;;3.55;1.27;;;5.50;99.90;;;;;;2091105;28;20223;-76
2023/11/08 02:54:03;;;;;;;1.25;0.90;;;5.50;99.90;;;;;;2096811;28;20265;-75
2023/11/08 02:55:04;;;;;;;2.73;0.93;;;5.50;99.90;;;;;;2091288;28;20203;-75
2023/11/08 02:56:05;;;;;;;2.05;1.10;;;5.40;99.90;;;;;;2093972;28;20191;-76
2023/11/08 02:57:05;;;;;;;2.90;1.00;;;5.40;99.90;;;;;;2088337;28;20193;-75
2023/11/08 02:58:06;;;;;;;3.47;1.10;;;5.50;99.90;;;;;;2089775;28;20230;-74
2023/11/08 02:59:08;;;;;;;2.67;1.20;;;5.50;99.90;;;;;;2097567;28;20211;-74
2023/11/08 03:00:10;;;;;;;3.80;1.13;;;5.60;99.90;;;;;;2099478;28;20187;-76
2023/11/08 03:01:11;;;;;;;2.25;1.10;;;5.60;99.90;;;;;;2097031;28;20187;-74
2023/11/08 03:02:12;;;;;;;1.83;1.00;;;5.60;99.90;;;;;;2093473;28;20673;-74
2023/11/08 03:03:13;;;;;;;1.97;1.47;;;5.50;99.90;;;;;;2091800;28;20214;-74
2023/11/08 03:04:14;;;;;;;1.95;1.08;;;5.60;99.90;;;;;;2089948;28;20180;-74
2023/11/08 03:05:23;;;;;;;1.97;1.30;;;5.60;99.90;;;;;;2092040;28;20706;-74
2023/11/08 03:06:24;;;;;;;1.85;1.15;;;5.60;99.90;;;;;;2092517;28;20267;-74
2023/11/08 03:07:26;;;;;;;3.07;1.13;;;5.70;99.90;;;;;;2091066;28;20579;-75
2023/11/08 03:08:27;;;;;;;4.93;1.30;;;5.70;99.90;;;;;;2090129;28;20224;-75
2023/11/08 03:09:28;;;;;;;2.80;1.10;;;5.80;99.90;;;;;;2089961;28;20310;-75
2023/11/08 03:10:28;;;;;;;3.77;2.07;;;5.70;99.90;;;;;;2088724;28;20742;-74
2023/11/08 03:11:29;;;;;;;2.67;1.20;;;5.70;99.90;;;;;;2091653;28;20568;-74
2023/11/08 03:12:30;;;;;;;6.20;1.17;;;5.60;99.90;;;;;;2092043;28;20224;-75
2023/11/08 03:13:32;;;;;;;4.90;1.75;;;5.60;99.90;;;;;;2092186;28;20239;-75
2023/11/08 03:14:32;;;;;;;3.08;1.27;;;5.60;99.90;;;;;;2090892;28;20234;-76
2023/11/08 03:15:33;;;;;;;2.03;1.17;;;5.60;99.90;;;;;;2086600;28;20282;-74
2023/11/08 03:16:35;;;;;;;3.00;0.93;;;5.70;99.90;;;;;;2095244;28;20300;-74
2023/11/08 03:17:36;;;;;;;2.65;1.00;;;5.70;99.90;;;;;;2091468;28;20231;-74
2023/11/08 03:18:36;;;;;;;3.47;1.10;;;5.60;99.90;;;;;;2090073;28;20323;-75
2023/11/08 03:19:37;;;;;;;1.10;0.90;;;5.60;99.90;;;;;;2090237;28;20472;-76
2023/11/08 03:20:38;;;;;;;3.60;1.30;;;5.60;99.90;;;;;;2087379;28;20682;-74
2023/11/08 03:21:43;;;;;;;2.35;1.00;;;5.50;99.90;;;;;;2091933;28;20227;-75
2023/11/08 03:22:45;;;;;;;2.95;0.90;;;5.40;99.90;;;;;;2092417;28;20219;-74
2023/11/08 03:23:45;;;;;;;4.22;1.83;;;5.40;99.90;;;;;;2094769;28;20230;-75
2023/11/08 03:24:46;;;;;;;5.60;0.97;;;5.40;99.90;;;;;;2086987;28;20310;-74
2023/11/08 03:25:47;;;;;;;4.10;0.90;;;5.40;99.90;;;;;;2086760;28;20317;-74
2023/11/08 03:26:49;;;;;;;2.27;1.20;;;5.50;99.90;;;;;;2091466;28;20231;-74
2023/11/08 03:27:49;;;;;;;4.15;1.00;;;5.40;99.90;;;;;;2103312;28;20237;-75
2023/11/08 03:28:50;;;;;;;3.13;1.10;;;5.50;99.90;;;;;;2095568;28;20239;-75
2023/11/08 03:29:50;;;;;;;1.30;0.90;;;5.50;99.90;;;;;;2095562;28;20285;-74
2023/11/08 03:30:51;;;;;;;2.33;1.13;;;5.40;99.90;;;;;;2098066;28;20603;-75
2023/11/08 03:31:51;;;;;;;1.60;0.83;;;5.40;99.90;;;;;;2091043;28;20354;-74
2023/11/08 03:32:54;;;;;;;1.00;0.90;;;5.40;99.90;;;;;;2083235;28;20254;-74
2023/11/08 03:33:56;;;;;;;3.03;0.90;;;5.30;99.90;;;;;;2080979;28;20291;-74
2023/11/08 03:34:56;;;;;;;2.20;1.10;;;5.40;99.90;;;;;;2084046;28;20244;-74
2023/11/08 03:35:57;;;;;;;5.17;1.00;;;5.50;99.90;;;;;;2078638;28;20228;-74
2023/11/08 03:36:58;;;;;;;3.20;1.40;;;5.50;99.90;;;;;;2077270;28;20626;-79
2023/11/08 03:37:59;;;;;;;4.10;1.30;;;5.50;99.90;;;;;;2085625;28;20219;-75
2023/11/08 03:39:00;;;;;;;2.58;1.08;;;5.60;99.90;;;;;;2089323;28;20231;-76
2023/11/08 03:40:02;;;;;;;1.33;1.00;;;5.70;99.90;;;;;;2083173;28;20190;-75
2023/11/08 03:41:03;;;;;;;1.45;1.02;;;5.80;99.90;;;;;;2082293;28;20180;-75
2023/11/08 03:42:04;;;;;;;2.35;1.17;;;5.80;99.90;;;;;;2078199;28;20654;-75
2023/11/08 03:43:05;;;;;;;2.97;1.05;;;5.90;99.90;;;;;;2080042;28;20832;-75
2023/11/08 03:44:05;;;;;;;1.80;0.93;;;5.90;99.90;;;;;;2083102;28;20200;-75
2023/11/08 03:45:07;;;;;;;3.07;1.20;;;5.90;99.90;;;;;;2090192;28;20634;-75
2023/11/08 03:46:08;;;;;;;2.00;0.98;;;5.90;99.90;;;;;;2082558;28;20188;-75
2023/11/08 03:47:10;;;;;;;2.90;1.10;;;6.00;99.90;;;;;;2081441;28;20189;-75
2023/11/08 03:48:10;;;;;;;2.63;0.90;;;5.80;99.90;;;;;;2082401;28;20189;-74
2023/11/08 03:49:11;;;;;;;3.43;1.47;;;5.80;99.90;;;;;;2079315;28;20270;-75
2023/11/08 03:50:12;;;;;;;1.73;0.90;;;5.70;99.90;;;;;;2082276;28;20657;-74
2023/11/08 03:51:13;;;;;;;3.23;1.10;;;5.70;99.90;;;;;;2087578;28;20188;-75
2023/11/08 03:52:13;;;;;;;2.72;1.10;;;5.80;99.90;;;;;;2073208;28;20207;-75
2023/11/08 03:53:14;;;;;;;1.87;1.20;;;5.80;99.90;;;;;;2082470;28;20182;-74
2023/11/08 03:54:14;;;;;;;2.67;1.23;;;5.80;99.90;;;;;;2089166;28;20728;-75
2023/11/08 03:55:15;;;;;;;3.70;1.23;;;5.80;99.90;;;;;;2093409;28;20185;-74
2023/11/08 03:56:16;;;;;;;1.90;0.90;;;5.90;99.90;;;;;;2098280;28;20213;-75
2023/11/08 03:57:18;;;;;;;3.55;1.00;;;5.90;99.90;;;;;;2097520;28;20666;-74
2023/11/08 03:58:18;;;;;;;1.55;1.00;;;5.80;99.90;;;;;;2090121;28;20219;-75
2023/11/08 03:59:19;;;;;;;1.93;0.87;;;5.70;99.90;;;;;;2090485;28;20753;-74
2023/11/08 04:00:19;;;;;;;3.30;1.00;;;5.80;99.90;;;;;;2090522;28;20254;-74
2023/11/08 04:01:20;;;;;;;1.17;0.80;;;5.70;99.90;;;;;;2091365;28;20233;-75
2023/11/08 04:02:21;;;;;;;1.90;0.80;;;5.70;99.90;;;;;;2090905;28;20247;-74
2023/11/08 04:03:22;;;;;;;1.63;1.00;;;5.80;99.90;;;;;;2090277;28;20231;-74
2023/11/08 04:04:22;;;;;;;2.50;1.10;;;5.80;99.90;;;;;;2091637;28;20223;-75
2023/11/08 04:05:23;;;;;;;2.53;0.87;;;5.80;99.90;;;;;;2091802;28;20276;-76
2023/11/08 04:06:24;;;;;;;2.27;1.30;;;5.80;99.90;;;;;;2090245;28;20232;-74
2023/11/08 04:07:27;;;;;;;2.03;1.37;;;5.80;99.90;;;;;;2089618;28;20228;-74
2023/11/08 04:08:27;;;;;;;1.05;0.80;;;5.80;99.90;;;;;;2089032;28;20252;-74
2023/11/08 04:09:28;;;;;;;1.40;0.80;;;5.70;99.90;;;;;;2088782;28;20224;-74
2023/11/08 04:10:28;;;;;;;5.47;1.10;;;5.80;99.90;;;;;;2091324;28;20219;-74
2023/11/08 04:11:29;;;;;;;4.27;1.50;;;5.80;99.90;;;;;;2090928;28;20223;-74
2023/11/08 04:12:30;;;;;;;3.67;1.10;;;5.80;99.90;;;;;;2091653;28;20605;-77
2023/11/08 04:13:30;;;;;;;1.73;1.00;;;5.80;99.90;;;;;;2091868;28;20224;-75
2023/11/08 04:14:31;;;;;;;2.07;1.10;;;5.80;99.90;;;;;;2089312;28;20352;-74
2023/11/08 04:15:31;;;;;;;4.17;1.40;;;5.80;99.90;;;;;;2078818;28;20228;-75
2023/11/08 04:16:40;;;;;;;3.70;1.00;;;5.80;99.90;;;;;;2090694;28;20224;-75
2023/11/08 04:17:41;;;;;;;2.40;1.00;;;5.90;99.90;;;;;;2089425;28;20258;-74
2023/11/08 04:18:42;;;;;;;2.40;1.07;;;5.90;99.90;;;;;;2094736;28;20305;-75
2023/11/08 04:19:45;;;;;;;1.50;0.80;;;5.90;99.90;;;;;;2086401;28;20232;-75
2023/11/08 04:20:46;;;;;;;2.15;1.10;;;5.90;99.90;;;;;;2083300;28;20369;-75
2023/11/08 04:21:48;;;;;;;2.10;0.90;;;5.90;99.90;;;;;;2090429;28;20220;-75
2023/11/08 04:22:48;;;;;;;0.80;0.80;;;5.90;99.90;;;;;;2093377;28;20235;-75
2023/11/08 04:23:49;;;;;;;1.60;0.90;;;5.90;99.90;;;;;;2078947;28;20278;-74
2023/11/08 04:24:50;;;;;;;2.95;1.10;;;5.80;99.90;;;;;;2079185;28;20327;-75
2023/11/08 04:25:51;;;;;;;3.73;1.07;;;5.80;99.90;;;;;;2086134;28;20236;-74
2023/11/08 04:26:52;;;;;;;2.20;1.47;;;5.80;99.90;;;;;;2091920;28;20227;-74
2023/11/08 04:27:52;;;;;;;1.38;0.90;;;5.80;99.90;;;;;;2080487;28;20654;-75
2023/11/08 04:28:55;;;;;;;1.87;0.90;;;5.80;99.90;;;;;;2080822;28;20248;-75
2023/11/08 04:29:55;;;;;;;3.10;1.15;;;5.80;99.90;;;;;;2091449;28;20238;-74
2023/11/08 04:30:56;;;;;;;3.17;1.00;;;5.80;99.90;;;;;;2090907;28;20250;-75
2023/11/08 04:31:56;;;;;;;5.53;2.43;;;5.70;99.90;;;;;;2092812;28;20243;-74
2023/11/08 04:32:57;;;;;;;5.67;2.90;;;5.60;99.90;;;;;;2091384;28;20237;-74
2023/11/08 04:33:59;;;;;;;3.83;2.00;;;5.60;99.90;;;;;;2094881;28;20226;-74
2023/11/08 04:34:59;;;;;;;2.53;1.20;;;5.70;99.90;;;;;;2093389;28;20223;-74
2023/11/08 04:36:00;;;;;;;2.83;1.70;;;5.70;99.90;;;;;;2092039;28;20613;-74
2023/11/08 04:37:05;;;;;;;4.67;1.30;;;5.60;99.90;;;;;;2090722;28;20187;-74
2023/11/08 04:38:05;;;;;;;3.03;0.90;;;5.70;99.90;;;;;;2089821;28;20723;-74
2023/11/08 04:39:07;;;;;;;2.87;1.13;;;5.60;99.90;;;;;;2090558;28;20260;-74
2023/11/08 04:40:09;;;;;;;2.88;1.05;;;5.70;99.90;;;;;;2089660;28;20190;-75
2023/11/08 04:41:14;;;;;;;1.55;0.90;;;5.70;99.90;;;;;;2090188;28;20668;-74
2023/11/08 04:42:16;;;;;;;2.30;0.90;;;5.70;99.90;;;;;;2089321;28;20181;-74
2023/11/08 04:43:16;;;;;;;1.52;1.13;;;5.70;99.90;;;;;;2093976;28;20600;-74
2023/11/08 04:44:18;;;;;;;3.00;0.93;;;5.70;99.90;;;;;;2094447;28;20340;-74
2023/11/08 04:45:18;;;;;;;2.50;0.80;;;5.60;99.90;;;;;;2094370;28;20175;-75
2023/11/08 04:46:19;;;;;;;2.17;1.17;;;5.60;99.90;;;;;;2088401;28;20246;-74
2023/11/08 04:47:20;;;;;;;1.83;1.03;;;5.50;99.90;;;;;;2089512;28;20262;-74
2023/11/08 04:48:21;;;;;;;2.25;0.80;;;5.60;99.90;;;;;;2091881;28;20842;-75
2023/11/08 04:49:22;;;;;;;2.78;0.90;;;5.60;99.90;;;;;;2089813;28;20235;-76
2023/11/08 04:50:23;;;;;;;1.53;1.10;;;5.60;99.90;;;;;;2090004;28;20242;-74
2023/11/08 04:51:23;;;;;;;2.07;0.90;;;5.50;99.90;;;;;;2089809;28;20224;-74
2023/11/08 04:52:24;;;;;;;2.97;1.00;;;5.50;99.90;;;;;;2093321;28;20224;-74
2023/11/08 04:53:24;;;;;;;1.57;0.90;;;5.50;99.90;;;;;;2092151;28;20319;-75
2023/11/08 04:54:25;;;;;;;1.87;0.83;;;5.40;99.90;;;;;;2089553;28;20306;-75
2023/11/08 04:55:25;;;;;;;2.17;1.23;;;5.50;99.90;;;;;;2089938;28;20224;-74
2023/11/08 04:56:26;;;;;;;1.90;1.17;;;5.50;99.90;;;;;;2091823;28;20235;-75
2023/11/08 04:57:27;;;;;;;1.47;0.87;;;5.50;99.90;;;;;;2091377;28;20234;-75
2023/11/08 04:58:28;;;;;;;2.75;0.80;;;5.40;99.90;;;;;;2091888;28;20248;-74
2023/11/08 04:59:29;;;;;;;2.70;1.00;;;5.40;99.90;;;;;;2090840;28;20251;-75
2023/11/08 05:00:29;;;;;;;1.20;0.90;;;5.50;99.90;;;;;;2085716;28;20639;-75
2023/11/08 05:01:30;;;;;;;1.30;0.90;;;5.40;99.90;;;;;;2082729;28;20236;-76
2023/11/08 05:02:34;;;;;;;4.97;0.93;;;5.40;99.90;;;;;;2089448;28;20629;-77
2023/11/08 05:03:35;;;;;;;3.72;1.00;;;5.50;99.90;;;;;;2086236;28;20231;-76
2023/11/08 05:04:39;;;;;;;1.53;1.07;;;5.40;99.90;;;;;;2086381;28;20314;-74
2023/11/08 05:05:39;;;;;;;1.50;1.15;;;5.40;99.90;;;;;;2072024;28;20240;-74
2023/11/08 05:06:40;;;;;;;2.23;1.50;;;5.40;99.90;;;;;;2081017;28;20228;-76
2023/11/08 05:07:44;;;;;;;2.97;1.23;;;5.30;99.90;;;;;;2091985;28;20227;-75
2023/11/08 05:08:45;;;;;;;1.40;0.90;;;5.30;99.90;;;;;;2087388;28;20269;-75
2023/11/08 05:09:45;;;;;;;3.40;1.67;;;5.30;99.90;;;;;;2088437;28;20690;-74
2023/11/08 05:10:46;;;;;;;1.63;1.10;;;5.30;99.90;;;;;;2091629;28;20228;-74
2023/11/08 05:11:46;;;;;;;3.10;1.10;;;5.40;99.90;;;;;;2091418;28;20227;-76
2023/11/08 05:12:48;;;;;;;2.27;1.10;;;5.30;99.90;;;;;;2091414;28;20321;-74
2023/11/08 05:13:49;;;;;;;2.25;1.05;;;5.30;99.90;;;;;;2090314;28;20318;-74
2023/11/08 05:14:49;;;;;;;2.90;1.00;;;5.30;99.90;;;;;;2088529;28;20254;-74
2023/11/08 05:15:50;;;;;;;3.03;0.90;;;5.30;99.90;;;;;;2090034;28;20712;-75
2023/11/08 05:16:51;;;;;;;1.80;0.90;;;5.30;99.90;;;;;;2095119;28;20707;-75
2023/11/08 05:17:51;;;;;;;1.53;0.93;;;5.30;99.90;;;;;;2086392;28;20235;-74
2023/11/08 05:18:52;;;;;;;2.00;1.00;;;5.40;99.90;;;;;;2094894;28;20326;-74
2023/11/08 05:19:53;;;;;;;1.33;0.90;;;5.50;99.90;;;;;;2096504;28;20297;-76
2023/11/08 05:20:54;;;;;;;0.87;0.80;;;5.50;99.90;;;;;;2093736;28;20484;-74
2023/11/08 05:21:55;;;;;;;2.90;1.00;;;5.50;99.90;;;;;;2096285;28;20316;-79
2023/11/08 05:22:56;;;;;;;3.27;1.20;;;5.50;99.90;;;;;;2096120;28;20759;-73